sensor_id;sensor_type;location;lat;lon;timestamp;pressure;altitude;pressure_sealevel;temperature;humidity
51239;BME280;38154;47.548;18.828;2024-02-04T00:00:14;99182.25;;;7.98;100.00
51239;BME280;38154;47.548;18.828;2024-02-04T00:02:40;99178.03;;;8.05;100.00
51239;BME280;38154;47.548;18.828;2024-02-04T00:05:06;99184.97;;;8.05;100.00
51239;BME280;38154;47.548;18.828;2024-02-04T00:07:31;99187.53;;;8.03;100.00
51239;BME280;38154;47.548;18.828;2024-02-04T00:09:57;99191.78;;;7.98;100.00
51239;BME280;38154;47.548;18.828;2024-02-04T00:12:23;99198.59;;;7.93;100.00
51239;BME280;38154;47.548;18.828;2024-02-04T00:14:48;99187.50;;;8.02;100.00
51239;BME280;38154;47.548;18.828;2024-02-04T00:17:17;99187.56;;;8.05;100.00
51239;BME280;38154;47.548;18.828;2024-02-04T00:19:43;99188.47;;;8.07;100.00
51239;BME280;38154;47.548;18.828;2024-02-04T00:22:09;99185.03;;;8.08;100.00
51239;BME280;38154;47.548;18.828;2024-02-04T00:24:34;99187.56;;;8.05;100.00
51239;BME280;38154;47.548;18.828;2024-02-04T00:27:00;99177.19;;;8.05;100.00
51239;BME280;38154;47.548;18.828;2024-02-04T00:29:26;99173.69;;;8.04;100.00
51239;BME280;38154;47.548;18.828;2024-02-04T00:31:52;99178.84;;;8.01;100.00
51239;BME280;38154;47.548;18.828;2024-02-04T00:34:17;99177.87;;;7.96;100.00
51239;BME280;38154;47.548;18.828;2024-02-04T00:36:43;99171.00;;;7.98;100.00
51239;BME280;38154;47.548;18.828;2024-02-04T00:39:09;99172.59;;;7.91;100.00
51239;BME280;38154;47.548;18.828;2024-02-04T00:41:34;99173.59;;;7.98;100.00
51239;BME280;38154;47.548;18.828;2024-02-04T00:44:00;99180.41;;;7.91;100.00
51239;BME280;38154;47.548;18.828;2024-02-04T00:46:26;99170.84;;;7.90;100.00
51239;BME280;38154;47.548;18.828;2024-02-04T00:48:51;99169.75;;;7.79;100.00
51239;BME280;38154;47.548;18.828;2024-02-04T00:51:17;99170.50;;;7.72;100.00
51239;BME280;38154;47.548;18.828;2024-02-04T00:53:45;99173.78;;;7.61;100.00
51239;BME280;38154;47.548;18.828;2024-02-04T00:56:11;99173.50;;;7.48;100.00
51239;BME280;38154;47.548;18.828;2024-02-04T00:58:37;99175.09;;;7.41;100.00
51239;BME280;38154;47.548;18.828;2024-02-04T01:01:03;99178.50;;;7.38;100.00
51239;BME280;38154;47.548;18.828;2024-02-04T01:03:30;99174.41;;;7.50;100.00
51239;BME280;38154;47.548;18.828;2024-02-04T01:05:56;99168.50;;;7.58;100.00
51239;BME280;38154;47.548;18.828;2024-02-04T01:08:21;99165.97;;;7.61;100.00
51239;BME280;38154;47.548;18.828;2024-02-04T01:10:47;99164.22;;;7.60;100.00
51239;BME280;38154;47.548;18.828;2024-02-04T01:13:13;99159.19;;;7.68;100.00
51239;BME280;38154;47.548;18.828;2024-02-04T01:15:39;99158.19;;;7.61;100.00
51239;BME280;38154;47.548;18.828;2024-02-04T01:18:05;99142.53;;;7.57;100.00
51239;BME280;38154;47.548;18.828;2024-02-04T01:20:30;99144.38;;;7.62;100.00
51239;BME280;38154;47.548;18.828;2024-02-04T01:22:56;99143.44;;;7.59;100.00
51239;BME280;38154;47.548;18.828;2024-02-04T01:25:22;99147.63;;;7.51;100.00
51239;BME280;38154;47.548;18.828;2024-02-04T01:27:47;99139.03;;;7.55;100.00
51239;BME280;38154;47.548;18.828;2024-02-04T01:30:13;99138.09;;;7.50;100.00
51239;BME280;38154;47.548;18.828;2024-02-04T01:32:38;99144.97;;;7.48;100.00
51239;BME280;38154;47.548;18.828;2024-02-04T01:35:04;99146.44;;;7.35;100.00
51239;BME280;38154;47.548;18.828;2024-02-04T01:37:30;99144.78;;;7.38;100.00
51239;BME280;38154;47.548;18.828;2024-02-04T01:39:55;99140.31;;;7.31;100.00
51239;BME280;38154;47.548;18.828;2024-02-04T01:42:21;99135.84;;;7.25;100.00
51239;BME280;38154;47.548;18.828;2024-02-04T01:44:47;99140.16;;;7.23;100.00
51239;BME280;38154;47.548;18.828;2024-02-04T01:47:12;99134.03;;;7.20;100.00
51239;BME280;38154;47.548;18.828;2024-02-04T01:49:38;99140.63;;;7.04;100.00
51239;BME280;38154;47.548;18.828;2024-02-04T01:52:05;99133.59;;;7.00;100.00
51239;BME280;38154;47.548;18.828;2024-02-04T01:54:31;99131.19;;;7.08;100.00
51239;BME280;38154;47.548;18.828;2024-02-04T01:56:57;99136.41;;;7.09;100.00
51239;BME280;38154;47.548;18.828;2024-02-04T01:59:23;99129.59;;;7.14;100.00
51239;BME280;38154;47.548;18.828;2024-02-04T02:01:58;99127.03;;;7.16;100.00
51239;BME280;38154;47.548;18.828;2024-02-04T02:04:24;99124.44;;;7.16;100.00
51239;BME280;38154;47.548;18.828;2024-02-04T02:06:51;99125.37;;;7.19;100.00
51239;BME280;38154;47.548;18.828;2024-02-04T02:09:17;99124.47;;;7.17;100.00
51239;BME280;38154;47.548;18.828;2024-02-04T02:11:45;99118.38;;;7.17;100.00
51239;BME280;38154;47.548;18.828;2024-02-04T02:14:16;99105.50;;;7.20;100.00
51239;BME280;38154;47.548;18.828;2024-02-04T02:16:43;99110.63;;;7.17;100.00
51239;BME280;38154;47.548;18.828;2024-02-04T02:26:47;99101.75;;;7.07;100.00
51239;BME280;38154;47.548;18.828;2024-02-04T02:29:13;99100.13;;;7.11;100.00
51239;BME280;38154;47.548;18.828;2024-02-04T02:31:39;99107.94;;;7.14;100.00
51239;BME280;38154;47.548;18.828;2024-02-04T02:34:05;99108.69;;;7.06;100.00
51239;BME280;38154;47.548;18.828;2024-02-04T02:36:33;99114.00;;;7.13;100.00
51239;BME280;38154;47.548;18.828;2024-02-04T02:39:03;99116.37;;;7.03;100.00
51239;BME280;38154;47.548;18.828;2024-02-04T02:41:35;99114.53;;;6.96;100.00
51239;BME280;38154;47.548;18.828;2024-02-04T02:44:01;99099.88;;;6.98;100.00
51239;BME280;38154;47.548;18.828;2024-02-04T02:46:28;99098.72;;;6.84;100.00
51239;BME280;38154;47.548;18.828;2024-02-04T02:48:54;99104.56;;;6.75;100.00
51239;BME280;38154;47.548;18.828;2024-02-04T02:51:20;99107.00;;;6.67;100.00
51239;BME280;38154;47.548;18.828;2024-02-04T02:53:45;99117.41;;;6.69;100.00
51239;BME280;38154;47.548;18.828;2024-02-04T02:56:11;99107.00;;;6.67;100.00
51239;BME280;38154;47.548;18.828;2024-02-04T02:58:37;99099.09;;;6.63;100.00
51239;BME280;38154;47.548;18.828;2024-02-04T03:01:02;99092.88;;;6.55;100.00
51239;BME280;38154;47.548;18.828;2024-02-04T03:03:28;99090.97;;;6.46;100.00
51239;BME280;38154;47.548;18.828;2024-02-04T03:05:54;99082.97;;;6.35;100.00
51239;BME280;38154;47.548;18.828;2024-02-04T03:08:19;99079.34;;;6.30;100.00
51239;BME280;38154;47.548;18.828;2024-02-04T03:10:45;99074.19;;;6.30;100.00
51239;BME280;38154;47.548;18.828;2024-02-04T03:13:10;99094.00;;;6.28;100.00
51239;BME280;38154;47.548;18.828;2024-02-04T03:15:36;99101.13;;;6.38;100.00
51239;BME280;38154;47.548;18.828;2024-02-04T03:18:02;99102.94;;;6.41;100.00
51239;BME280;38154;47.548;18.828;2024-02-04T03:20:28;99103.84;;;6.43;100.00
51239;BME280;38154;47.548;18.828;2024-02-04T03:22:54;99102.13;;;6.43;100.00
51239;BME280;38154;47.548;18.828;2024-02-04T03:25:20;99104.81;;;6.48;100.00
51239;BME280;38154;47.548;18.828;2024-02-04T03:27:46;99104.25;;;6.61;100.00
51239;BME280;38154;47.548;18.828;2024-02-04T03:30:12;99097.59;;;6.73;100.00
51239;BME280;38154;47.548;18.828;2024-02-04T03:32:37;99098.62;;;6.79;100.00
51239;BME280;38154;47.548;18.828;2024-02-04T03:35:03;99081.53;;;6.89;100.00
51239;BME280;38154;47.548;18.828;2024-02-04T03:37:29;99083.34;;;6.93;100.00
51239;BME280;38154;47.548;18.828;2024-02-04T03:39:54;99091.97;;;6.92;100.00
51239;BME280;38154;47.548;18.828;2024-02-04T03:42:20;99094.69;;;6.98;100.00
51239;BME280;38154;47.548;18.828;2024-02-04T03:44:47;99095.56;;;6.99;100.00
51239;BME280;38154;47.548;18.828;2024-02-04T03:47:13;99103.34;;;7.00;100.00
51239;BME280;38154;47.548;18.828;2024-02-04T03:49:39;99102.56;;;7.03;100.00
51239;BME280;38154;47.548;18.828;2024-02-04T03:52:05;99100.09;;;7.09;100.00
51239;BME280;38154;47.548;18.828;2024-02-04T03:54:30;99099.38;;;7.16;100.00
51239;BME280;38154;47.548;18.828;2024-02-04T03:56:56;99092.66;;;7.26;100.00
51239;BME280;38154;47.548;18.828;2024-02-04T03:59:22;99097.25;;;7.39;100.00
51239;BME280;38154;47.548;18.828;2024-02-04T04:01:48;99102.44;;;7.39;100.00
51239;BME280;38154;47.548;18.828;2024-02-04T04:04:15;99097.25;;;7.39;100.00
51239;BME280;38154;47.548;18.828;2024-02-04T04:06:42;99101.63;;;7.43;100.00
51239;BME280;38154;47.548;18.828;2024-02-04T04:09:07;99098.94;;;7.39;100.00
51239;BME280;38154;47.548;18.828;2024-02-04T04:11:33;99103.16;;;7.34;100.00
51239;BME280;38154;47.548;18.828;2024-02-04T04:13:58;99108.38;;;7.35;100.00
51239;BME280;38154;47.548;18.828;2024-02-04T04:16:24;99112.00;;;7.43;100.00
51239;BME280;38154;47.548;18.828;2024-02-04T04:18:50;99099.94;;;7.46;100.00
51239;BME280;38154;47.548;18.828;2024-02-04T04:21:15;99106.88;;;7.47;100.00
51239;BME280;38154;47.548;18.828;2024-02-04T04:23:41;99102.53;;;7.44;100.00
51239;BME280;38154;47.548;18.828;2024-02-04T04:26:07;99081.78;;;7.47;100.00
51239;BME280;38154;47.548;18.828;2024-02-04T04:28:32;99091.19;;;7.40;100.00
51239;BME280;38154;47.548;18.828;2024-02-04T04:30:58;99095.41;;;7.35;100.00
51239;BME280;38154;47.548;18.828;2024-02-04T04:33:24;99103.22;;;7.37;100.00
51239;BME280;38154;47.548;18.828;2024-02-04T04:35:49;99092.75;;;7.31;100.00
51239;BME280;38154;47.548;18.828;2024-02-04T04:38:15;99099.25;;;7.10;100.00
51239;BME280;38154;47.548;18.828;2024-02-04T04:40:41;99100.84;;;7.03;100.00
51239;BME280;38154;47.548;18.828;2024-02-04T04:43:06;99103.31;;;6.97;100.00
51239;BME280;38154;47.548;18.828;2024-02-04T04:45:32;99083.28;;;6.90;100.00
51239;BME280;38154;47.548;18.828;2024-02-04T04:47:58;99079.75;;;6.86;100.00
51239;BME280;38154;47.548;18.828;2024-02-04T04:50:23;99083.12;;;6.82;100.00
51239;BME280;38154;47.548;18.828;2024-02-04T04:52:49;99083.66;;;6.67;100.00
51239;BME280;38154;47.548;18.828;2024-02-04T04:55:15;99080.25;;;6.70;100.00
51239;BME280;38154;47.548;18.828;2024-02-04T04:57:40;99070.72;;;6.67;100.00
51239;BME280;38154;47.548;18.828;2024-02-04T05:00:06;99062.06;;;6.68;100.00
51239;BME280;38154;47.548;18.828;2024-02-04T05:02:39;99060.12;;;6.58;100.00
51239;BME280;38154;47.548;18.828;2024-02-04T05:05:05;99054.13;;;6.59;100.00
51239;BME280;38154;47.548;18.828;2024-02-04T05:07:31;99075.56;;;6.52;100.00
51239;BME280;38154;47.548;18.828;2024-02-04T05:09:56;99066.00;;;6.49;100.00
51239;BME280;38154;47.548;18.828;2024-02-04T05:12:22;99083.22;;;6.47;100.00
51239;BME280;38154;47.548;18.828;2024-02-04T05:14:48;99082.41;;;6.50;100.00
51239;BME280;38154;47.548;18.828;2024-02-04T05:17:13;99074.53;;;6.44;100.00
51239;BME280;38154;47.548;18.828;2024-02-04T05:19:42;99073.78;;;6.49;100.00
51239;BME280;38154;47.548;18.828;2024-02-04T05:22:08;99067.66;;;6.46;100.00
51239;BME280;38154;47.548;18.828;2024-02-04T05:24:33;99076.16;;;6.42;100.00
51239;BME280;38154;47.548;18.828;2024-02-04T05:26:59;99081.16;;;6.32;100.00
51239;BME280;38154;47.548;18.828;2024-02-04T05:29:25;99076.13;;;6.39;100.00
51239;BME280;38154;47.548;18.828;2024-02-04T05:31:50;99087.59;;;6.50;100.00
51239;BME280;38154;47.548;18.828;2024-02-04T05:34:16;99088.41;;;6.47;100.00
51239;BME280;38154;47.548;18.828;2024-02-04T05:36:42;99085.94;;;6.52;100.00
51239;BME280;38154;47.548;18.828;2024-02-04T05:39:08;99093.75;;;6.54;100.00
51239;BME280;38154;47.548;18.828;2024-02-04T05:41:34;99089.19;;;6.45;100.00
51239;BME280;38154;47.548;18.828;2024-02-04T05:44:00;99090.94;;;6.44;100.00
51239;BME280;38154;47.548;18.828;2024-02-04T05:46:25;99097.91;;;6.48;100.00
51239;BME280;38154;47.548;18.828;2024-02-04T05:48:53;99086.34;;;6.32;100.00
51239;BME280;38154;47.548;18.828;2024-02-04T05:51:18;99095.59;;;6.23;100.00
51239;BME280;38154;47.548;18.828;2024-02-04T05:53:44;99095.06;;;6.36;100.00
51239;BME280;38154;47.548;18.828;2024-02-04T05:56:10;99108.03;;;6.38;100.00
51239;BME280;38154;47.548;18.828;2024-02-04T05:58:35;99111.50;;;6.38;100.00
51239;BME280;38154;47.548;18.828;2024-02-04T06:01:02;99110.56;;;6.35;100.00
51239;BME280;38154;47.548;18.828;2024-02-04T06:03:27;99126.78;;;6.27;100.00
51239;BME280;38154;47.548;18.828;2024-02-04T06:05:53;99114.91;;;6.36;100.00
51239;BME280;38154;47.548;18.828;2024-02-04T06:08:19;99107.84;;;6.30;100.00
51239;BME280;38154;47.548;18.828;2024-02-04T06:10:44;99107.75;;;6.25;100.00
51239;BME280;38154;47.548;18.828;2024-02-04T06:13:10;99110.97;;;6.17;100.00
51239;BME280;38154;47.548;18.828;2024-02-04T06:15:36;99111.91;;;6.19;100.00
51239;BME280;38154;47.548;18.828;2024-02-04T06:18:01;99113.69;;;6.21;100.00
51239;BME280;38154;47.548;18.828;2024-02-04T06:20:27;99105.25;;;6.28;100.00
51239;BME280;38154;47.548;18.828;2024-02-04T06:22:52;99099.28;;;6.32;100.00
51239;BME280;38154;47.548;18.828;2024-02-04T06:25:18;99098.66;;;6.43;100.00
51239;BME280;38154;47.548;18.828;2024-02-04T06:27:44;99095.25;;;6.44;100.00
51239;BME280;38154;47.548;18.828;2024-02-04T06:30:09;99089.34;;;6.51;100.00
51239;BME280;38154;47.548;18.828;2024-02-04T06:32:35;99089.56;;;6.60;100.00
51239;BME280;38154;47.548;18.828;2024-02-04T06:35:01;99091.31;;;6.61;100.00
51239;BME280;38154;47.548;18.828;2024-02-04T06:37:27;99099.91;;;6.59;100.00
51239;BME280;38154;47.548;18.828;2024-02-04T06:39:53;99088.78;;;6.64;100.00
51239;BME280;38154;47.548;18.828;2024-02-04T06:42:19;99094.97;;;6.71;100.00
51239;BME280;38154;47.548;18.828;2024-02-04T06:44:45;99093.44;;;6.79;100.00
51239;BME280;38154;47.548;18.828;2024-02-04T06:47:11;99094.56;;;6.92;100.00
51239;BME280;38154;47.548;18.828;2024-02-04T06:49:39;99098.91;;;6.93;100.00
51239;BME280;38154;47.548;18.828;2024-02-04T06:52:05;99121.53;;;7.02;100.00
51239;BME280;38154;47.548;18.828;2024-02-04T06:54:30;99109.56;;;7.09;100.00
51239;BME280;38154;47.548;18.828;2024-02-04T06:56:56;99103.75;;;7.20;100.00
51239;BME280;38154;47.548;18.828;2024-02-04T06:59:22;99105.69;;;7.29;100.00
51239;BME280;38154;47.548;18.828;2024-02-04T07:01:47;99104.91;;;7.33;100.00
51239;BME280;38154;47.548;18.828;2024-02-04T07:04:13;99125.50;;;7.27;100.00
51239;BME280;38154;47.548;18.828;2024-02-04T07:06:39;99125.59;;;7.30;100.00
51239;BME280;38154;47.548;18.828;2024-02-04T07:09:04;99124.87;;;7.39;100.00
51239;BME280;38154;47.548;18.828;2024-02-04T07:11:30;99122.31;;;7.40;100.00
51239;BME280;38154;47.548;18.828;2024-02-04T07:13:55;99130.97;;;7.39;100.00
51239;BME280;38154;47.548;18.828;2024-02-04T07:16:25;99126.63;;;7.40;100.00
51239;BME280;38154;47.548;18.828;2024-02-04T07:18:51;99119.94;;;7.51;100.00
51239;BME280;38154;47.548;18.828;2024-02-04T07:21:17;99117.44;;;7.57;100.00
51239;BME280;38154;47.548;18.828;2024-02-04T07:23:43;99119.22;;;7.58;100.00
51239;BME280;38154;47.548;18.828;2024-02-04T07:26:08;99119.31;;;7.63;100.00
51239;BME280;38154;47.548;18.828;2024-02-04T07:28:34;99123.75;;;7.70;100.00
51239;BME280;38154;47.548;18.828;2024-02-04T07:31:00;99110.06;;;7.79;100.00
51239;BME280;38154;47.548;18.828;2024-02-04T07:33:25;99114.56;;;7.88;100.00
51239;BME280;38154;47.548;18.828;2024-02-04T07:35:51;99119.78;;;7.91;100.00
51239;BME280;38154;47.548;18.828;2024-02-04T07:38:17;99125.66;;;7.80;100.00
51239;BME280;38154;47.548;18.828;2024-02-04T07:40:42;99139.56;;;7.83;100.00
51239;BME280;38154;47.548;18.828;2024-02-04T07:43:08;99141.31;;;7.84;100.00
51239;BME280;38154;47.548;18.828;2024-02-04T07:45:34;99147.44;;;7.89;100.00
51239;BME280;38154;47.548;18.828;2024-02-04T07:47:59;99153.69;;;7.98;100.00
51239;BME280;38154;47.548;18.828;2024-02-04T07:50:25;99154.63;;;8.04;100.00
51239;BME280;38154;47.548;18.828;2024-02-04T07:52:51;99155.59;;;8.09;100.00
51239;BME280;38154;47.548;18.828;2024-02-04T07:55:17;99165.94;;;8.06;100.00
51239;BME280;38154;47.548;18.828;2024-02-04T07:57:43;99173.78;;;8.09;100.00
51239;BME280;38154;47.548;18.828;2024-02-04T08:00:08;99174.66;;;8.11;100.00
51239;BME280;38154;47.548;18.828;2024-02-04T08:02:37;99163.66;;;8.24;100.00
51239;BME280;38154;47.548;18.828;2024-02-04T08:05:03;99173.59;;;8.47;100.00
51239;BME280;38154;47.548;18.828;2024-02-04T08:07:29;99171.91;;;9.08;100.00
51239;BME280;38154;47.548;18.828;2024-02-04T08:09:55;99166.28;;;9.42;100.00
51239;BME280;38154;47.548;18.828;2024-02-04T08:12:21;99172.69;;;9.75;100.00
51239;BME280;38154;47.548;18.828;2024-02-04T08:14:46;99165.03;;;9.90;100.00
51239;BME280;38154;47.548;18.828;2024-02-04T08:17:12;99164.94;;;9.78;100.00
51239;BME280;38154;47.548;18.828;2024-02-04T08:19:38;99168.94;;;9.48;100.00
51239;BME280;38154;47.548;18.828;2024-02-04T08:22:03;99163.44;;;9.25;100.00
51239;BME280;38154;47.548;18.828;2024-02-04T08:24:29;99167.53;;;9.06;100.00
51239;BME280;38154;47.548;18.828;2024-02-04T08:26:57;99163.16;;;9.02;100.00
51239;BME280;38154;47.548;18.828;2024-02-04T08:29:24;99169.78;;;8.83;100.00
51239;BME280;38154;47.548;18.828;2024-02-04T08:31:50;99167.50;;;9.04;100.00
51239;BME280;38154;47.548;18.828;2024-02-04T08:34:15;99169.66;;;9.36;100.00
51239;BME280;38154;47.548;18.828;2024-02-04T08:36:41;99172.63;;;9.65;100.00
51239;BME280;38154;47.548;18.828;2024-02-04T08:39:07;99174.41;;;9.71;100.00
51239;BME280;38154;47.548;18.828;2024-02-04T08:41:33;99169.13;;;9.65;100.00
51239;BME280;38154;47.548;18.828;2024-02-04T08:43:58;99172.63;;;9.67;100.00
51239;BME280;38154;47.548;18.828;2024-02-04T08:46:24;99159.47;;;9.55;100.00
51239;BME280;38154;47.548;18.828;2024-02-04T08:48:50;99156.78;;;9.50;100.00
51239;BME280;38154;47.548;18.828;2024-02-04T08:51:15;99171.47;;;9.43;100.00
51239;BME280;38154;47.548;18.828;2024-02-04T08:53:43;99161.13;;;9.48;100.00
51239;BME280;38154;47.548;18.828;2024-02-04T08:56:09;99172.41;;;9.47;100.00
51239;BME280;38154;47.548;18.828;2024-02-04T08:58:35;99156.06;;;9.59;100.00
51239;BME280;38154;47.548;18.828;2024-02-04T09:01:03;99160.47;;;9.68;100.00
51239;BME280;38154;47.548;18.828;2024-02-04T09:03:29;99148.50;;;9.85;100.00
51239;BME280;38154;47.548;18.828;2024-02-04T09:05:55;99145.91;;;9.85;100.00
51239;BME280;38154;47.548;18.828;2024-02-04T09:08:20;99134.47;;;10.64;100.00
51239;BME280;38154;47.548;18.828;2024-02-04T09:10:46;99127.72;;;11.05;100.00
51239;BME280;38154;47.548;18.828;2024-02-04T09:13:12;99127.13;;;11.80;100.00
51239;BME280;38154;47.548;18.828;2024-02-04T09:15:37;99121.97;;;12.35;97.85
51239;BME280;38154;47.548;18.828;2024-02-04T09:18:03;99145.50;;;12.35;96.78
51239;BME280;38154;47.548;18.828;2024-02-04T09:20:29;99132.44;;;12.12;96.20
51239;BME280;38154;47.548;18.828;2024-02-04T09:22:54;99130.53;;;11.52;98.69
51239;BME280;38154;47.548;18.828;2024-02-04T09:25:20;99115.53;;;11.05;100.00
51239;BME280;38154;47.548;18.828;2024-02-04T09:27:46;99132.06;;;11.00;100.00
51239;BME280;38154;47.548;18.828;2024-02-04T09:30:12;99140.72;;;10.95;100.00
51239;BME280;38154;47.548;18.828;2024-02-04T09:32:37;99147.59;;;10.81;100.00
51239;BME280;38154;47.548;18.828;2024-02-04T09:35:03;99145.66;;;10.54;100.00
51239;BME280;38154;47.548;18.828;2024-02-04T09:37:29;99148.03;;;10.28;100.00
51239;BME280;38154;47.548;18.828;2024-02-04T09:39:55;99143.66;;;10.25;100.00
51239;BME280;38154;47.548;18.828;2024-02-04T09:42:20;99137.69;;;10.32;100.00
51239;BME280;38154;47.548;18.828;2024-02-04T09:44:50;99137.78;;;10.45;100.00
51239;BME280;38154;47.548;18.828;2024-02-04T09:47:16;99139.63;;;10.58;100.00
51239;BME280;38154;47.548;18.828;2024-02-04T09:49:42;99153.63;;;10.69;100.00
51239;BME280;38154;47.548;18.828;2024-02-04T09:52:08;99143.34;;;10.99;100.00
51239;BME280;38154;47.548;18.828;2024-02-04T09:54:39;99150.41;;;11.15;100.00
51239;BME280;38154;47.548;18.828;2024-02-04T09:57:07;99145.41;;;11.77;99.43
51239;BME280;38154;47.548;18.828;2024-02-04T09:59:33;99151.59;;;12.54;96.45
51239;BME280;38154;47.548;18.828;2024-02-04T10:01:58;99137.66;;;12.40;94.59
51239;BME280;38154;47.548;18.828;2024-02-04T10:04:24;99148.13;;;12.48;93.63
51239;BME280;38154;47.548;18.828;2024-02-04T10:06:50;99142.88;;;12.69;92.54
51239;BME280;38154;47.548;18.828;2024-02-04T10:09:16;99129.53;;;13.55;88.67
51239;BME280;38154;47.548;18.828;2024-02-04T10:11:41;99139.06;;;13.70;84.63
51239;BME280;38154;47.548;18.828;2024-02-04T10:14:07;99127.34;;;14.21;82.78
51239;BME280;38154;47.548;18.828;2024-02-04T10:16:34;99126.50;;;14.19;81.24
51239;BME280;38154;47.548;18.828;2024-02-04T10:19:00;99109.06;;;14.13;81.66
51239;BME280;38154;47.548;18.828;2024-02-04T10:21:26;99117.78;;;14.18;80.59
51239;BME280;38154;47.548;18.828;2024-02-04T10:23:51;99109.25;;;13.90;81.42
51239;BME280;38154;47.548;18.828;2024-02-04T10:26:17;99118.25;;;13.36;84.68
51239;BME280;38154;47.548;18.828;2024-02-04T10:28:45;99117.50;;;12.97;88.17
51239;BME280;38154;47.548;18.828;2024-02-04T10:31:12;99107.13;;;12.59;90.44
51239;BME280;38154;47.548;18.828;2024-02-04T10:33:38;99086.22;;;12.39;91.78
51239;BME280;38154;47.548;18.828;2024-02-04T10:36:04;99081.00;;;12.16;93.13
51239;BME280;38154;47.548;18.828;2024-02-04T10:38:30;99084.47;;;12.13;93.89
51239;BME280;38154;47.548;18.828;2024-02-04T10:40:56;99074.84;;;11.72;94.41
51239;BME280;38154;47.548;18.828;2024-02-04T10:43:24;99067.88;;;11.60;96.09
51239;BME280;38154;47.548;18.828;2024-02-04T10:45:52;99084.41;;;11.61;96.74
51239;BME280;38154;47.548;18.828;2024-02-04T10:48:21;99067.84;;;11.52;97.80
51239;BME280;38154;47.548;18.828;2024-02-04T10:50:50;99066.97;;;11.41;97.31
51239;BME280;38154;47.548;18.828;2024-02-04T10:53:16;99069.53;;;11.33;96.95
51239;BME280;38154;47.548;18.828;2024-02-04T10:55:45;99063.44;;;11.25;98.32
51239;BME280;38154;47.548;18.828;2024-02-04T10:58:12;99053.88;;;11.29;98.33
51239;BME280;38154;47.548;18.828;2024-02-04T11:00:38;99052.12;;;11.25;98.42
51239;BME280;38154;47.548;18.828;2024-02-04T11:03:05;99045.19;;;11.39;97.19
51239;BME280;38154;47.548;18.828;2024-02-04T11:05:31;99045.25;;;11.55;97.38
51239;BME280;38154;47.548;18.828;2024-02-04T11:07:57;99044.38;;;11.88;96.00
51239;BME280;38154;47.548;18.828;2024-02-04T11:10:24;99052.25;;;12.20;92.85
51239;BME280;38154;47.548;18.828;2024-02-04T11:12:51;99047.00;;;12.33;91.92
51239;BME280;38154;47.548;18.828;2024-02-04T11:15:17;99040.87;;;12.46;91.34
51239;BME280;38154;47.548;18.828;2024-02-04T11:28:11;99036.62;;;14.03;79.97
51239;BME280;38154;47.548;18.828;2024-02-04T11:30:36;99033.63;;;14.41;79.29
51239;BME280;38154;47.548;18.828;2024-02-04T11:33:03;99033.84;;;14.21;75.73
51239;BME280;38154;47.548;18.828;2024-02-04T11:35:29;99032.13;;;14.16;76.91
51239;BME280;38154;47.548;18.828;2024-02-04T11:37:54;99028.84;;;13.87;79.96
51239;BME280;38154;47.548;18.828;2024-02-04T11:40:20;99027.25;;;13.72;79.93
51239;BME280;38154;47.548;18.828;2024-02-04T11:42:46;99028.25;;;13.51;81.04
51239;BME280;38154;47.548;18.828;2024-02-04T11:45:12;99022.16;;;13.52;79.11
51239;BME280;38154;47.548;18.828;2024-02-04T11:47:39;99021.34;;;13.29;80.05
51239;BME280;38154;47.548;18.828;2024-02-04T11:50:05;99008.41;;;13.09;79.41
51239;BME280;38154;47.548;18.828;2024-02-04T11:52:30;99018.00;;;13.04;82.04
51239;BME280;38154;47.548;18.828;2024-02-04T11:54:56;99015.44;;;12.99;82.03
51239;BME280;38154;47.548;18.828;2024-02-04T11:57:22;99032.00;;;12.95;83.66
51239;BME280;38154;47.548;18.828;2024-02-04T11:59:48;99031.09;;;13.04;81.96
51239;BME280;38154;47.548;18.828;2024-02-04T12:02:15;99030.12;;;13.23;81.55
51239;BME280;38154;47.548;18.828;2024-02-04T12:04:41;99017.87;;;13.31;81.14
51239;BME280;38154;47.548;18.828;2024-02-04T12:07:08;99017.00;;;13.29;79.77
51239;BME280;38154;47.548;18.828;2024-02-04T12:09:35;99010.94;;;13.20;81.04
51239;BME280;38154;47.548;18.828;2024-02-04T12:12:00;99010.91;;;13.33;80.75
51239;BME280;38154;47.548;18.828;2024-02-04T12:14:28;99013.56;;;13.21;81.19
51239;BME280;38154;47.548;18.828;2024-02-04T12:16:55;99011.06;;;12.98;81.34
51239;BME280;38154;47.548;18.828;2024-02-04T12:19:21;99011.97;;;12.92;83.04
51239;BME280;38154;47.548;18.828;2024-02-04T12:21:47;99010.34;;;12.64;82.92
51239;BME280;38154;47.548;18.828;2024-02-04T12:24:12;99008.66;;;12.35;85.34
51239;BME280;38154;47.548;18.828;2024-02-04T12:26:38;99010.41;;;12.34;86.30
51239;BME280;38154;47.548;18.828;2024-02-04T12:29:04;98998.22;;;12.27;86.81
51239;BME280;38154;47.548;18.828;2024-02-04T12:31:30;99002.56;;;12.36;87.86
51239;BME280;38154;47.548;18.828;2024-02-04T12:33:58;99013.00;;;12.40;88.79
51239;BME280;38154;47.548;18.828;2024-02-04T12:36:26;99012.16;;;12.38;88.58
51239;BME280;38154;47.548;18.828;2024-02-04T12:38:56;99007.78;;;12.43;89.03
51239;BME280;38154;47.548;18.828;2024-02-04T12:41:22;98993.84;;;12.37;88.31
51239;BME280;38154;47.548;18.828;2024-02-04T12:43:51;99002.56;;;12.30;88.32
51239;BME280;38154;47.548;18.828;2024-02-04T12:46:18;99005.19;;;12.17;89.49
51239;BME280;38154;47.548;18.828;2024-02-04T12:48:44;98998.22;;;12.21;90.06
51239;BME280;38154;47.548;18.828;2024-02-04T12:51:09;98987.75;;;12.16;90.95
51239;BME280;38154;47.548;18.828;2024-02-04T12:53:38;98992.09;;;12.27;91.84
51239;BME280;38154;47.548;18.828;2024-02-04T12:56:04;98989.47;;;12.36;91.98
51239;BME280;38154;47.548;18.828;2024-02-04T12:58:29;99000.78;;;12.38;91.19
51239;BME280;38154;47.548;18.828;2024-02-04T13:01:01;98992.09;;;12.33;90.91